Pronóstico
Mapa Interactivo
Aviación
Climatología
Hidrometeorología
Agrometeorología
Estaciones Automáticas
Transparencia
OMM WMO
Portada
Institución
Noticias
Imágenes
Tsunami
Historial
Boletines y Alertas
Contactos
Buscar Contenidos
Informe del Tiempo

SADR31 MDSD 240700Z
METAR

METAR MDST 240700Z 00000KT 9999 FEW016 21/21 Q1016=
METAR MDPC 240700Z 00000KT 9999 SCT016 23/22 Q1015 RERA=
METAR MDSD 240700Z 01004KT 9999 SCT016 22/21 Q1015=